« お泊り 富山空港 2016/2/23 tue | トップページ | 見送2 那覇空港 2016/2/1 mon »

2016/02/24

見送1 那覇空港 2016/2/1 mon

第9航空団が新編されて間もなく一月になろうとする。南支那海は連日話題だが、東は少し大人しいのだろうか? ようやく、新編行事の翌日、風雨の中、ブルー御一行様をお見送りした様子を。しかーし、こんな雨、風の中、自分ながらうましかと思う。

ROAH 312230Z 35011KT 6000 -SHRA FEW005 SCT013 BKN030 18/17 Q1020 RMK 1ST005 3CU013 6CU030 A3012

雨の月曜日の那覇。ものすごい渋滞で、瀬長島にたどり着くのに1時間以上掛かってしまった。

20160201_roah_00ja8397

JAL900 ROAH-RJTT JA8397 B767-346

20160201_roah_01huh60

西に向かって飛び立ったUH。ポニーちゃん事件の後、西に飛ぶへりは一度東側に向かって上昇してから、空港上空を横切るように、西へ進出するデパーチャーコースとなったようだ。

20160201_roah_02ja62an

ANA1732 ROAH-RJBB JA62AN B737-881

20160201_roah_03ja81rc

RAC81RC ROAH-???? JA81RC DHC8-402EC

20160201_roah_04ja8936

RAC873 ROAH-ROKJ JA8936 DHC8-314

20160201_roah_05hch47

チヌタン

20160201_roah_06ja8196

ANA1762 ROIG-ROAH JA8196 B737-54K

20160201_roah_07ja8992

JTA51 RJFF-ROAH JA8992 B737-446

20160201_roah_08m5035

5035 P-3C VP-5

20160201_roah_09b50003

TTW230  RCTP-ROAH B-50003 A320-232

ROAH 010000Z 35011KT 9999 -SHRA FEW005 SCT007 BKN015 18/17 Q1020 RMK 1ST005 3ST007 6CU015 A3012

20160201_roah_10ja16jj

JJP301 RJAA-ROAH JA16JJ A320-232

20160201_roah_11m5057

5057 P-3C VP-1

20160201_roah_12b16201

EVA112 RCTP-ROAH B-16201 A321-211

20160201_roah_13ja303k

ANA1201 RJFF-ROAH JA303K B737-54K

20160201_roah_14ja8972

RAC872 ROKJ-ROAH JA8972 DHC8-100

20160201_roah_15ja53an

ANA461 RJTT-ROAH JA53AN B737-881

20160201_roah_16ja008d

JAL901 RJTT-ROAH JA008D B777-289

20160201_roah_17ja804p

APJ921 ROAH-RCTP JA804P A320-214

20160201_roah_18ja737t

SKY510 ROAH-RJTT JA737T B737-8Q8

20160201_roah_19bi1

9時半ごろ、雨が酷い中、まず3機がIFRで築城行き

20160201_roah_20bi1

風は北から。空港方面に向けると、まとめに風雨をくらって、カメラは水浸し・・

20160201_roah_21bi1

ピントもなかなか合わない中、これが限界でした。

20160201_roah_22hl7227

HL7227 ????-ROAH HL7227 B737-7HF/BBJ

20160201_roah_23ja73nu

SKY511 RJTT-ROAH JA73NU B737-86N

20160201_roah_24ja8993

JTA552 ROMY-ROAH JA8993 B737-446

20160201_roah_25ja8936

RAC874 ROKJ-ROAH JA8936 DHC8-314

20160201_roah_26ja8972

RAC861 ROAH-ROMD JA8972 DHC8-100

20160201_roah_27ja8674

ANA993 RJTT-ROAH JA8674 B767-381

20160201_roah_28hl7737

AAR170 RKPK-ROAH HL7737 A320-232

20160201_roah_29ja8992

JTA605 ROAH-ROIG JA8992 B737-446

20160201_roah_30b22607

TNA682 RCTP-ROAH B-22607 A321-131

20160201_roah_31ja16jj

JJP300 ROAH-RJAA JA16JJ A320-232

20160201_roah_32ja357k

ANA1764 ROIG-ROAH JA357K B737-5L9

20160201_roah_33u923026

92-3026 U-125A NAHA-ARS

ROAH 010100Z 35014KT 9999 -SHRA FEW005 SCT008 BKN012 18/17 Q1020 RMK 1ST005 3ST008 6CU012 A3013

20160201_roah_34ja8938

JTA43 RJGG-ROAH JA8938 B737-4Q3

20160201_roah_35bi4

ブルーインパルス第2団。今回は6機での展開だったため、第2編隊は4番機がリーダー。

20160201_roah_36bi4

20160201_roah_37bi4

20160201_roah_38bi4

20160201_roah_39bi4

無事におかえりください。ありがとうございました。

その2へつづく・・

|

« お泊り 富山空港 2016/2/23 tue | トップページ | 見送2 那覇空港 2016/2/1 mon »

BI」カテゴリの記事

那覇空港」カテゴリの記事

コメント

コメントを書く



(ウェブ上には掲載しません)


コメントは記事投稿者が公開するまで表示されません。



トラックバック


この記事へのトラックバック一覧です: 見送1 那覇空港 2016/2/1 mon:

« お泊り 富山空港 2016/2/23 tue | トップページ | 見送2 那覇空港 2016/2/1 mon »